Time;durP1;ratioP1;P1;durP2;ratioP2;P2;SDS_P1;SDS_P2;PMS_P1;PMS_P2;Temp;Humidity;BMP_temperature;BMP_pressure;BME280_temperature;BME280_humidity;BME280_pressure;Samples;Min_cycle;Max_cycle;Signal;HPM_P1;HPM_P2
2023/05/07 00:01:47;;;;;;;24.60;13.98;;;;;;;;;;4231005;28;20024;-84
2023/05/07 00:03:48;;;;;;;20.25;11.80;;;;;;;;;;4229693;28;20086;-84
2023/05/07 00:05:49;;;;;;;26.48;13.32;;;;;;;;;;4230851;28;20051;-84
2023/05/07 00:07:52;;;;;;;20.70;11.60;;;;;;;;;;4230587;28;20056;-84
2023/05/07 00:09:53;;;;;;;17.65;11.02;;;;;;;;;;4249126;28;20047;-84
2023/05/07 00:11:55;;;;;;;19.98;12.55;;;;;;;;;;4247994;28;20118;-84
2023/05/07 00:13:56;;;;;;;25.95;13.13;;;;;;;;;;4230100;28;20048;-84
2023/05/07 00:15:58;;;;;;;20.25;12.15;;;;;;;;;;4230790;28;20031;-84
2023/05/07 00:17:59;;;;;;;23.13;12.77;;;;;;;;;;4228622;28;20100;-84
2023/05/07 00:20:01;;;;;;;25.10;12.43;;;;;;;;;;4249474;28;20039;-84
2023/05/07 00:22:02;;;;;;;20.58;11.68;;;;;;;;;;4250884;27;20058;-84
2023/05/07 00:24:03;;;;;;;21.00;12.45;;;;;;;;;;4234209;28;20139;-83
2023/05/07 00:26:04;;;;;;;21.30;12.50;;;;;;;;;;4251515;27;20035;-83
2023/05/07 00:28:05;;;;;;;25.50;12.85;;;;;;;;;;4251479;27;20126;-83
2023/05/07 00:30:07;;;;;;;22.65;11.85;;;;;;;;;;4252258;27;20043;-83
2023/05/07 00:32:08;;;;;;;20.48;12.60;;;;;;;;;;4233074;28;20048;-84
2023/05/07 00:34:09;;;;;;;22.08;12.95;;;12.50;99.90;;;;;;4251894;27;20053;-83
2023/05/07 00:36:10;;;;;;;21.08;12.68;;;11.70;99.90;;;;;;4232920;28;20071;-84
2023/05/07 00:38:11;;;;;;;21.20;12.48;;;11.60;99.90;;;;;;4251968;27;20047;-84
2023/05/07 00:40:11;;;;;;;19.77;11.45;;;11.60;99.90;;;;;;4251654;27;20800;-84
2023/05/07 00:42:12;;;;;;;23.20;11.98;;;11.60;99.90;;;;;;4223112;28;20051;-83
2023/05/07 00:44:14;;;;;;;21.55;12.18;;;11.60;99.90;;;;;;4217284;28;20974;-83
2023/05/07 00:46:15;;;;;;;22.92;12.63;;;11.50;99.90;;;;;;4215734;28;20059;-84
2023/05/07 00:48:16;;;;;;;21.23;12.23;;;11.60;99.90;;;;;;4216509;28;20040;-84
2023/05/07 00:50:19;;;;;;;20.23;12.55;;;11.60;99.90;;;;;;4233451;28;20048;-83
2023/05/07 00:52:21;;;;;;;22.95;13.00;;;11.50;99.90;;;;;;4216737;28;20043;-84
2023/05/07 00:54:22;;;;;;;22.40;12.50;;;11.50;99.90;;;;;;4234486;28;20055;-84
2023/05/07 00:56:24;;;;;;;24.73;13.38;;;11.50;99.90;;;;;;4234917;28;20392;-84
2023/05/07 00:58:25;;;;;;;24.92;13.85;;;11.50;99.90;;;;;;4244635;27;20043;-84
2023/05/07 01:00:26;;;;;;;25.00;13.27;;;11.50;99.90;;;;;;4251351;27;20071;-84
2023/05/07 01:02:27;;;;;;;23.42;12.93;;;11.50;99.90;;;;;;4234207;28;20069;-84
2023/05/07 01:04:28;;;;;;;23.73;13.52;;;11.40;99.90;;;;;;4251223;27;20447;-84
2023/05/07 01:06:30;;;;;;;24.38;14.50;;;11.40;99.90;;;;;;4252243;27;20038;-85
2023/05/07 01:08:32;;;;;;;22.75;14.38;;;11.40;99.90;;;;;;4211320;28;20067;-84
2023/05/07 01:10:33;;;;;;;23.40;13.00;;;11.40;99.90;;;;;;4227870;28;20067;-85
2023/05/07 01:12:36;;;;;;;27.63;15.20;;;11.40;99.90;;;;;;4216597;28;20482;-85
2023/05/07 01:14:36;;;;;;;24.17;14.05;;;11.40;99.90;;;;;;4204544;28;20047;-85
2023/05/07 01:16:37;;;;;;;27.15;15.07;;;11.40;99.90;;;;;;4220685;28;20682;-85
2023/05/07 01:18:38;;;;;;;27.35;14.70;;;11.40;99.90;;;;;;4215847;28;20066;-85
2023/05/07 01:20:39;;;;;;;25.55;14.43;;;11.30;99.90;;;;;;4233779;28;20047;-85
2023/05/07 01:22:40;;;;;;;27.08;15.57;;;11.40;99.90;;;;;;4234075;28;20088;-85
2023/05/07 01:24:42;;;;;;;24.25;14.73;;;11.40;99.90;;;;;;4234877;28;20510;-85
2023/05/07 01:26:44;;;;;;;26.27;14.68;;;11.40;99.90;;;;;;4233223;28;20035;-85
2023/05/07 01:28:45;;;;;;;27.60;15.82;;;11.40;99.90;;;;;;4234096;28;20134;-85
2023/05/07 01:30:59;;;;;;;26.17;16.33;;;11.40;99.90;;;;;;4234584;28;20089;-85
2023/05/07 01:33:07;;;;;;;28.23;15.93;;;11.40;99.90;;;;;;4233352;28;20050;-85
2023/05/07 01:35:12;;;;;;;28.90;14.68;;;11.40;99.90;;;;;;4199503;28;20157;-85
2023/05/07 01:37:13;;;;;;;29.35;16.75;;;11.40;99.90;;;;;;4217321;28;20047;-85
2023/05/07 01:39:15;;;;;;;29.45;16.13;;;11.40;99.90;;;;;;4249515;27;20541;-85
2023/05/07 01:41:16;;;;;;;31.25;17.80;;;11.30;99.90;;;;;;4251319;27;20082;-85
2023/05/07 01:43:17;;;;;;;27.13;16.35;;;11.30;99.90;;;;;;4250595;27;20503;-85
2023/05/07 01:45:18;;;;;;;32.83;18.77;;;11.30;99.90;;;;;;4251526;27;20598;-85
2023/05/07 01:47:20;;;;;;;31.20;17.48;;;11.40;99.90;;;;;;4215779;28;20131;-86
2023/05/07 01:49:21;;;;;;;30.08;16.13;;;11.30;99.90;;;;;;4250856;27;20039;-85
2023/05/07 01:51:22;;;;;;;27.83;16.63;;;11.40;99.90;;;;;;4251298;27;20559;-84
2023/05/07 01:53:23;;;;;;;32.05;17.52;;;11.40;99.90;;;;;;4250598;27;20080;-85
2023/05/07 01:55:24;;;;;;;31.05;16.95;;;11.30;99.90;;;;;;4250756;27;20030;-85
2023/05/07 01:57:25;;;;;;;30.67;17.15;;;11.30;99.90;;;;;;4215045;28;20048;-85
2023/05/07 01:59:26;;;;;;;29.58;16.67;;;11.30;99.90;;;;;;4251299;27;20114;-85
2023/05/07 02:01:26;;;;;;;28.45;17.25;;;11.40;99.90;;;;;;4215412;28;20051;-86
2023/05/07 02:03:27;;;;;;;29.48;16.77;;;11.30;99.90;;;;;;4250870;27;20049;-85
2023/05/07 02:05:28;;;;;;;28.27;17.65;;;11.40;99.90;;;;;;4250949;27;20047;-85
2023/05/07 02:07:29;;;;;;;28.65;16.63;;;11.30;99.90;;;;;;4249172;27;20046;-85
2023/05/07 02:09:29;;;;;;;33.70;18.80;;;11.30;99.90;;;;;;4231764;28;20054;-85
2023/05/07 02:11:31;;;;;;;29.67;17.40;;;11.40;99.90;;;;;;4250384;27;20092;-85
2023/05/07 02:13:36;;;;;;;35.33;19.10;;;11.40;99.90;;;;;;4249375;27;20118;-85
2023/05/07 02:15:37;;;;;;;33.13;19.15;;;11.40;99.90;;;;;;4249067;27;20569;-86
2023/05/07 02:18:07;;;;;;;34.78;19.83;;;11.40;99.90;;;;;;4231888;28;20039;-85
2023/05/07 02:20:13;;;;;;;37.08;19.02;;;11.40;99.90;;;;;;4250573;27;20054;-85
2023/05/07 02:22:15;;;;;;;32.30;18.80;;;11.30;99.90;;;;;;4250360;27;20043;-86
2023/05/07 02:24:16;;;;;;;36.05;20.38;;;11.30;99.90;;;;;;4245322;27;20050;-85
2023/05/07 02:26:16;;;;;;;38.22;21.30;;;11.30;99.90;;;;;;4233813;28;20067;-85
2023/05/07 02:28:17;;;;;;;38.88;22.00;;;11.30;99.90;;;;;;4232439;28;20082;-85
2023/05/07 02:30:21;;;;;;;38.35;21.45;;;11.30;99.90;;;;;;4233309;28;20172;-85
2023/05/07 02:32:23;;;;;;;36.95;20.70;;;11.30;99.90;;;;;;4214906;28;20063;-85
2023/05/07 02:34:23;;;;;;;37.03;20.27;;;11.30;99.90;;;;;;4231688;28;20047;-85
2023/05/07 02:36:24;;;;;;;37.38;20.50;;;11.30;99.90;;;;;;4197870;28;20467;-85
2023/05/07 02:38:25;;;;;;;35.33;19.88;;;11.30;99.90;;;;;;4214413;28;20094;-85
2023/05/07 02:40:28;;;;;;;33.25;18.10;;;11.20;99.90;;;;;;4214142;28;20047;-85
2023/05/07 02:42:30;;;;;;;31.55;18.10;;;11.20;99.90;;;;;;4232301;28;20556;-85
2023/05/07 02:44:31;;;;;;;35.75;19.48;;;11.20;99.90;;;;;;4213579;28;20519;-85
2023/05/07 02:46:33;;;;;;;32.42;17.88;;;11.20;99.90;;;;;;4214278;28;20040;-85
2023/05/07 02:48:34;;;;;;;36.47;18.25;;;11.20;99.90;;;;;;4232742;28;20043;-85
2023/05/07 02:50:35;;;;;;;34.20;17.92;;;11.20;99.90;;;;;;4232932;28;20135;-85
2023/05/07 02:52:35;;;;;;;28.52;16.05;;;11.20;99.90;;;;;;4232013;28;20491;-85
2023/05/07 02:54:36;;;;;;;26.92;15.63;;;11.10;99.90;;;;;;4232470;28;20063;-85
2023/05/07 02:56:41;;;;;;;29.08;16.27;;;11.10;99.90;;;;;;4231646;28;20040;-85
2023/05/07 02:58:42;;;;;;;32.00;16.58;;;11.10;99.90;;;;;;4202890;28;20086;-85
2023/05/07 03:00:43;;;;;;;33.60;16.90;;;11.10;99.90;;;;;;4248145;27;20096;-85
2023/05/07 03:02:44;;;;;;;36.53;19.60;;;11.10;99.90;;;;;;4230725;28;20047;-85
2023/05/07 03:04:45;;;;;;;38.60;20.40;;;11.10;99.90;;;;;;4250147;27;20554;-85
2023/05/07 03:06:47;;;;;;;41.40;19.80;;;11.10;99.90;;;;;;4250148;27;20070;-85
2023/05/07 03:08:49;;;;;;;38.08;19.35;;;11.10;99.90;;;;;;4250128;27;20394;-85
2023/05/07 03:10:49;;;;;;;41.65;19.80;;;11.10;99.90;;;;;;4247434;27;20578;-85
2023/05/07 03:12:50;;;;;;;38.33;19.60;;;11.00;99.90;;;;;;4247745;27;20039;-85
2023/05/07 03:14:56;;;;;;;33.30;17.35;;;11.10;99.90;;;;;;4231693;28;20048;-85
2023/05/07 03:16:57;;;;;;;31.35;17.05;;;11.00;99.90;;;;;;4245695;27;20035;-85
2023/05/07 03:18:57;;;;;;;29.60;16.42;;;10.90;99.90;;;;;;4214717;28;20492;-85
2023/05/07 03:20:59;;;;;;;28.42;15.05;;;11.00;99.90;;;;;;4232329;28;20046;-85
2023/05/07 03:23:00;;;;;;;30.48;15.40;;;10.90;99.90;;;;;;4198402;28;20051;-85
2023/05/07 03:25:01;;;;;;;26.05;14.68;;;11.00;99.90;;;;;;4230978;28;20119;-84
2023/05/07 03:27:02;;;;;;;28.10;14.70;;;10.90;99.90;;;;;;4198936;28;20064;-85
2023/05/07 03:29:04;;;;;;;28.55;16.13;;;10.90;99.90;;;;;;4214567;28;20492;-85
2023/05/07 03:31:04;;;;;;;30.70;16.17;;;10.90;99.90;;;;;;4197655;28;20048;-85
2023/05/07 03:33:05;;;;;;;33.08;15.52;;;10.90;99.90;;;;;;4198313;28;20520;-85
2023/05/07 03:35:07;;;;;;;29.10;15.95;;;10.90;99.90;;;;;;4232923;28;20943;-85
2023/05/07 03:37:07;;;;;;;32.80;17.70;;;10.90;99.90;;;;;;4233905;28;20414;-85
2023/05/07 03:39:08;;;;;;;31.55;15.73;;;10.80;99.90;;;;;;4198323;28;20072;-85
2023/05/07 03:41:09;;;;;;;30.33;15.73;;;10.90;99.90;;;;;;4220954;28;20055;-85
2023/05/07 03:43:15;;;;;;;33.00;17.55;;;10.80;99.90;;;;;;4248210;28;20180;-84
2023/05/07 03:45:17;;;;;;;31.27;17.05;;;10.80;99.90;;;;;;4249294;28;20067;-86
2023/05/07 03:47:18;;;;;;;34.80;17.40;;;10.80;99.90;;;;;;4250058;28;20123;-84
2023/05/07 03:49:19;;;;;;;31.17;16.83;;;10.80;99.90;;;;;;4231602;28;20043;-84
2023/05/07 03:51:20;;;;;;;33.67;18.10;;;10.80;99.90;;;;;;4231694;28;20483;-84
2023/05/07 03:53:21;;;;;;;39.25;20.05;;;;;;;;;;4249081;28;20038;-84
2023/05/07 03:55:21;;;;;;;32.88;17.52;;;10.80;99.90;;;;;;4250105;27;20090;-84
2023/05/07 03:57:24;;;;;;;35.78;19.20;;;10.80;99.90;;;;;;4233770;28;20524;-84
2023/05/07 03:59:25;;;;;;;36.33;18.23;;;10.80;99.90;;;;;;4252518;27;20074;-84
2023/05/07 04:01:26;;;;;;;37.05;19.02;;;10.70;99.90;;;;;;4253311;27;20077;-84
2023/05/07 04:03:27;;;;;;;38.25;18.92;;;10.70;99.90;;;;;;4252489;27;20099;-85
2023/05/07 04:05:28;;;;;;;32.05;17.90;;;10.80;99.90;;;;;;4253008;27;20067;-84
2023/05/07 04:07:28;;;;;;;38.13;18.85;;;10.80;99.90;;;;;;4217077;28;20052;-84
2023/05/07 04:09:29;;;;;;;31.83;17.23;;;10.80;99.90;;;;;;4217325;28;20051;-84
2023/05/07 04:11:32;;;;;;;32.97;17.73;;;10.80;99.90;;;;;;4217218;28;20098;-84
2023/05/07 04:13:33;;;;;;;32.15;17.08;;;10.70;99.90;;;;;;4236097;28;20051;-84
2023/05/07 04:15:35;;;;;;;32.65;17.73;;;10.70;99.90;;;;;;4245715;27;20039;-84
2023/05/07 04:17:35;;;;;;;37.67;17.02;;;10.70;99.90;;;;;;4233453;28;20499;-84
2023/05/07 04:19:36;;;;;;;29.27;16.70;;;10.70;99.90;;;;;;4252994;27;20046;-85
2023/05/07 04:21:39;;;;;;;26.83;14.80;;;10.60;99.90;;;;;;4234157;28;20520;-85
2023/05/07 04:23:40;;;;;;;30.15;16.02;;;10.60;99.90;;;;;;4252834;27;20461;-85
2023/05/07 04:25:47;;;;;;;28.88;16.40;;;10.60;99.90;;;;;;4233746;28;20048;-84
2023/05/07 04:27:50;;;;;;;28.52;15.90;;;10.60;99.90;;;;;;4238937;27;20399;-85
2023/05/07 04:29:51;;;;;;;31.35;16.23;;;10.60;99.90;;;;;;4235832;28;20118;-85
2023/05/07 04:31:52;;;;;;;28.25;15.57;;;10.60;99.90;;;;;;4217037;28;20058;-85
2023/05/07 04:33:52;;;;;;;28.25;16.10;;;10.60;99.90;;;;;;4235937;28;20084;-84
2023/05/07 04:35:53;;;;;;;30.65;16.10;;;10.60;99.90;;;;;;4200124;28;20145;-84
2023/05/07 04:37:54;;;;;;;31.60;15.98;;;10.50;99.90;;;;;;4223756;28;20073;-84
2023/05/07 04:39:55;;;;;;;26.65;14.55;;;10.50;99.90;;;;;;4226373;28;20062;-84
2023/05/07 04:41:56;;;;;;;25.92;15.35;;;10.60;99.90;;;;;;4233674;28;20083;-84
2023/05/07 04:43:58;;;;;;;25.92;14.82;;;10.60;99.90;;;;;;4224860;28;20489;-84
2023/05/07 04:45:59;;;;;;;27.05;15.85;;;10.50;99.90;;;;;;4233071;28;20059;-85
2023/05/07 04:48:00;;;;;;;26.42;14.85;;;10.60;99.90;;;;;;4218520;28;20044;-84
2023/05/07 04:50:02;;;;;;;28.50;15.05;;;10.60;99.90;;;;;;4234932;28;20824;-84
2023/05/07 04:52:03;;;;;;;30.00;16.60;;;10.60;99.90;;;;;;4252460;27;20054;-84
2023/05/07 04:54:04;;;;;;;30.17;14.65;;;10.60;99.90;;;;;;4234064;28;20047;-85
2023/05/07 04:56:05;;;;;;;23.85;15.45;;;10.50;99.90;;;;;;4232727;28;20053;-85
2023/05/07 04:58:07;;;;;;;26.30;14.98;;;10.60;99.90;;;;;;4253563;27;20061;-84
2023/05/07 05:00:08;;;;;;;28.13;15.48;;;10.60;99.90;;;;;;4235769;28;20455;-84
2023/05/07 05:02:12;;;;;;;32.95;15.55;;;10.60;99.90;;;;;;4236216;28;20030;-84
2023/05/07 05:04:14;;;;;;;24.95;14.25;;;10.60;99.90;;;;;;4217127;28;20477;-84
2023/05/07 05:06:16;;;;;;;25.75;15.32;;;10.60;99.90;;;;;;4220124;28;20491;-84
2023/05/07 05:08:17;;;;;;;31.27;15.75;;;10.60;99.90;;;;;;4248312;27;20036;-83
2023/05/07 05:10:18;;;;;;;25.52;14.60;;;10.60;99.90;;;;;;4200491;28;20150;-83
2023/05/07 05:12:18;;;;;;;26.55;15.30;;;10.60;99.90;;;;;;4203947;28;20678;-83
2023/05/07 05:14:19;;;;;;;26.67;14.50;;;10.60;99.90;;;;;;4251920;27;20039;-84
2023/05/07 05:16:20;;;;;;;25.75;14.65;;;10.60;99.90;;;;;;4234545;28;20047;-83
2023/05/07 05:18:21;;;;;;;25.45;14.68;;;10.60;99.90;;;;;;4233418;28;20070;-84
2023/05/07 05:20:22;;;;;;;26.50;15.77;;;10.70;99.90;;;;;;4234096;28;20051;-83
2023/05/07 05:22:22;;;;;;;30.38;16.15;;;10.60;99.90;;;;;;4251343;27;20050;-84
2023/05/07 05:24:23;;;;;;;29.35;16.85;;;10.60;99.90;;;;;;4251532;27;20390;-84
2023/05/07 05:26:24;;;;;;;32.08;16.48;;;10.60;99.90;;;;;;4251686;27;20035;-84
2023/05/07 05:28:27;;;;;;;28.83;16.95;;;10.60;99.90;;;;;;4252294;27;20052;-84
2023/05/07 05:30:28;;;;;;;30.08;17.17;;;10.60;99.90;;;;;;4234064;28;20040;-84
2023/05/07 05:32:28;;;;;;;30.02;16.70;;;10.60;99.90;;;;;;4229178;28;20093;-84
2023/05/07 05:34:29;;;;;;;29.95;15.70;;;10.60;99.90;;;;;;4216539;28;20069;-84
2023/05/07 05:36:31;;;;;;;24.45;14.73;;;10.60;99.90;;;;;;4221886;28;20056;-84
2023/05/07 05:38:32;;;;;;;24.38;14.70;;;10.60;99.90;;;;;;4231908;28;20044;-85
2023/05/07 05:40:33;;;;;;;30.10;15.02;;;10.60;99.90;;;;;;4233844;28;20491;-84
2023/05/07 05:42:34;;;;;;;26.13;15.23;;;10.70;99.90;;;;;;4233231;28;20127;-84
2023/05/07 05:44:34;;;;;;;25.42;14.20;;;10.70;99.90;;;;;;4234066;28;20075;-83
2023/05/07 05:46:35;;;;;;;27.38;15.65;;;10.70;99.90;;;;;;4252117;27;20476;-83
2023/05/07 05:48:36;;;;;;;34.25;17.50;;;10.60;99.90;;;;;;4233665;28;20040;-84
2023/05/07 05:50:38;;;;;;;31.42;17.80;;;10.60;99.90;;;;;;4233681;28;20564;-83
2023/05/07 05:52:38;;;;;;;40.00;19.92;;;10.70;99.90;;;;;;4233541;28;20052;-83
2023/05/07 05:54:39;;;;;;;35.83;20.58;;;10.70;99.90;;;;;;4234006;28;20050;-84
2023/05/07 05:56:42;;;;;;;36.30;21.00;;;10.70;99.90;;;;;;4233108;28;20161;-82
2023/05/07 05:58:44;;;;;;;36.20;20.58;;;10.70;99.90;;;;;;4233173;28;20542;-83
2023/05/07 06:00:48;;;;;;;33.72;19.90;;;10.70;99.90;;;;;;4232884;28;20051;-83
2023/05/07 06:02:48;;;;;;;35.47;19.15;;;10.60;99.90;;;;;;4232914;28;20050;-84
2023/05/07 06:04:49;;;;;;;31.50;18.30;;;10.70;99.90;;;;;;4232081;28;20411;-84
2023/05/07 06:06:50;;;;;;;27.88;15.63;;;10.60;99.90;;;;;;4233157;28;20077;-84
2023/05/07 06:08:51;;;;;;;27.80;16.05;;;10.70;99.90;;;;;;4232875;28;20381;-85
2023/05/07 06:10:52;;;;;;;29.05;15.82;;;10.70;99.90;;;;;;4249664;27;20043;-84
2023/05/07 06:12:53;;;;;;;24.88;15.25;;;10.70;99.90;;;;;;4232198;28;20043;-84
2023/05/07 06:14:53;;;;;;;28.50;16.88;;;10.70;99.90;;;;;;4232713;28;20077;-83
2023/05/07 06:16:54;;;;;;;34.13;19.58;;;10.70;99.90;;;;;;4232907;28;20047;-84
2023/05/07 06:18:55;;;;;;;39.53;19.42;;;10.70;99.90;;;;;;4214729;28;20569;-84
2023/05/07 06:20:56;;;;;;;35.22;20.17;;;10.80;99.90;;;;;;4219904;28;20048;-84
2023/05/07 06:22:56;;;;;;;36.95;20.85;;;10.70;99.90;;;;;;4233041;28;20047;-84
2023/05/07 06:24:57;;;;;;;34.20;19.33;;;10.70;99.90;;;;;;4234376;28;20115;-84
2023/05/07 06:26:58;;;;;;;38.88;20.20;;;10.70;99.90;;;;;;4215750;28;20044;-84
2023/05/07 06:28:59;;;;;;;36.95;20.38;;;10.70;99.90;;;;;;4234180;28;20147;-84
2023/05/07 06:31:15;;;;;;;35.70;20.15;;;10.70;99.90;;;;;;4234366;28;20047;-83
2023/05/07 06:33:16;;;;;;;36.95;20.55;;;10.80;99.90;;;;;;4232441;28;20060;-83
2023/05/07 06:35:16;;;;;;;37.75;21.05;;;10.80;99.90;;;;;;4251007;27;20109;-84
2023/05/07 06:37:17;;;;;;;38.15;21.52;;;10.80;99.90;;;;;;4250713;27;20064;-84
2023/05/07 06:39:22;;;;;;;34.63;18.00;;;10.90;99.90;;;;;;4248354;27;20058;-83
2023/05/07 06:41:23;;;;;;;33.75;16.80;;;10.90;99.90;;;;;;4248474;27;20050;-84
2023/05/07 06:43:24;;;;;;;26.95;16.23;;;10.80;99.90;;;;;;4247600;27;20506;-84
2023/05/07 06:45:25;;;;;;;25.88;14.80;;;10.80;99.90;;;;;;4250291;27;20047;-85
2023/05/07 06:47:25;;;;;;;25.63;14.18;;;10.90;99.90;;;;;;4249148;27;20039;-84
2023/05/07 06:49:26;;;;;;;25.92;14.30;;;10.90;99.90;;;;;;4250231;27;20046;-83
2023/05/07 06:51:27;;;;;;;23.65;13.60;;;10.90;99.90;;;;;;4214727;28;20047;-83
2023/05/07 06:53:29;;;;;;;24.70;14.45;;;10.90;99.90;;;;;;4214191;28;20384;-83
2023/05/07 06:55:30;;;;;;;22.00;12.15;;;10.90;99.90;;;;;;4250321;27;20445;-83
2023/05/07 06:57:31;;;;;;;21.25;11.90;;;11.00;99.90;;;;;;4249923;27;20039;-84
2023/05/07 06:59:31;;;;;;;22.77;13.13;;;11.00;99.90;;;;;;4232272;28;20460;-84
2023/05/07 07:01:32;;;;;;;28.25;14.23;;;11.10;99.90;;;;;;4215431;28;20071;-84
2023/05/07 07:03:33;;;;;;;22.65;12.98;;;11.10;99.90;;;;;;4257576;27;20074;-84
2023/05/07 07:05:34;;;;;;;22.73;12.98;;;11.10;99.90;;;;;;4251975;27;20047;-84
2023/05/07 07:07:36;;;;;;;23.38;13.13;;;11.10;99.90;;;;;;4249909;27;20043;-83
2023/05/07 07:09:36;;;;;;;23.48;12.80;;;11.10;99.90;;;;;;4249289;27;20082;-84
2023/05/07 07:11:37;;;;;;;23.60;12.70;;;11.10;99.90;;;;;;4222220;28;20056;-84
2023/05/07 07:13:39;;;;;;;23.65;12.90;;;11.10;99.90;;;;;;4233845;28;20087;-85
2023/05/07 07:15:40;;;;;;;22.35;12.45;;;11.10;99.90;;;;;;4208304;28;20055;-85
2023/05/07 07:17:42;;;;;;;18.63;11.18;;;11.00;99.90;;;;;;4216247;28;20540;-85
2023/05/07 07:19:42;;;;;;;22.33;13.25;;;11.00;99.90;;;;;;4198530;28;20063;-84
2023/05/07 07:21:44;;;;;;;22.48;14.00;;;11.00;99.90;;;;;;4214729;28;20052;-85
2023/05/07 07:23:45;;;;;;;23.33;12.82;;;11.00;99.90;;;;;;4232730;28;20515;-84
2023/05/07 07:25:46;;;;;;;22.80;12.32;;;11.00;99.90;;;;;;4233115;28;20089;-85
2023/05/07 07:27:46;;;;;;;20.52;11.90;;;11.00;99.90;;;;;;4243047;28;20039;-84
2023/05/07 07:29:47;;;;;;;24.17;11.98;;;10.90;99.90;;;;;;4250053;27;20367;-85
2023/05/07 07:31:49;;;;;;;22.15;12.85;;;10.90;99.90;;;;;;4255835;27;20039;-84
2023/05/07 07:33:52;;;;;;;23.05;13.18;;;10.90;99.90;;;;;;4255182;27;20092;-83
2023/05/07 07:35:55;;;;;;;24.98;12.23;;;10.90;99.90;;;;;;4255678;27;20411;-85
2023/05/07 07:37:56;;;;;;;22.80;13.13;;;10.90;99.90;;;;;;4255485;27;20430;-86
2023/05/07 07:39:57;;;;;;;25.58;13.48;;;11.00;99.90;;;;;;4255256;27;20031;-84
2023/05/07 07:41:58;;;;;;;22.92;13.40;;;11.00;99.90;;;;;;4256080;27;20073;-85
2023/05/07 07:43:59;;;;;;;21.17;12.48;;;11.00;99.90;;;;;;4237801;28;20504;-85
2023/05/07 07:45:59;;;;;;;23.90;13.02;;;11.00;99.90;;;;;;4257038;27;20041;-85
2023/05/07 07:48:01;;;;;;;24.33;12.43;;;11.00;99.90;;;;;;4220729;28;20044;-85
2023/05/07 07:50:02;;;;;;;24.02;13.20;;;11.00;99.90;;;;;;4256986;27;20039;-85
2023/05/07 07:52:03;;;;;;;22.20;12.65;;;11.00;99.90;;;;;;4221882;28;20105;-85
2023/05/07 07:54:05;;;;;;;24.65;12.93;;;11.10;99.90;;;;;;4237399;28;20122;-85
2023/05/07 07:56:06;;;;;;;25.25;12.98;;;11.10;99.90;;;;;;4233091;28;20067;-84
2023/05/07 07:58:07;;;;;;;23.52;13.25;;;11.10;99.90;;;;;;4238457;28;20412;-85
2023/05/07 08:00:09;;;;;;;25.42;12.68;;;11.10;99.90;;;;;;4239502;28;20407;-85
2023/05/07 08:02:10;;;;;;;24.08;13.32;;;11.20;99.90;;;;;;4238366;28;20048;-85
2023/05/07 08:04:13;;;;;;;28.30;13.30;;;;;;;;;;4240081;28;20040;-85
2023/05/07 08:06:15;;;;;;;23.90;13.35;;;;;;;;;;4221009;28;20054;-86
2023/05/07 08:08:22;;;;;;;21.48;12.93;;;;;;;;;;4239207;27;20537;-85
2023/05/07 08:10:23;;;;;;;22.02;12.35;;;;;;;;;;4205119;28;20056;-85
2023/05/07 08:12:24;;;;;;;25.20;12.80;;;;;;;;;;4221758;28;20040;-85
2023/05/07 08:14:28;;;;;;;21.63;13.23;;;11.20;99.90;;;;;;4240460;28;20039;-85
2023/05/07 08:16:29;;;;;;;23.45;12.65;;;10.40;99.90;;;;;;4236955;28;20050;-84
2023/05/07 08:18:30;;;;;;;26.55;12.75;;;11.30;99.90;;;;;;4253813;27;20036;-84
2023/05/07 08:20:35;;;;;;;22.02;12.32;;;11.40;99.90;;;;;;4218232;28;20477;-84
2023/05/07 08:22:36;;;;;;;25.25;13.80;;;11.40;99.90;;;;;;4252527;28;20043;-85
2023/05/07 08:24:37;;;;;;;24.15;13.32;;;11.50;99.90;;;;;;4236980;28;20048;-84
2023/05/07 08:26:39;;;;;;;22.45;12.57;;;11.70;99.90;;;;;;4239593;28;20115;-85
2023/05/07 08:28:39;;;;;;;24.73;12.88;;;11.60;99.90;;;;;;4257261;27;20504;-85
2023/05/07 08:30:42;;;;;;;20.30;11.68;;;11.60;99.90;;;;;;4236968;28;20554;-85
2023/05/07 08:32:43;;;;;;;25.48;12.60;;;11.70;99.90;;;;;;4255942;27;20035;-85
2023/05/07 08:34:44;;;;;;;23.90;13.75;;;11.70;99.90;;;;;;4256591;27;20510;-84
2023/05/07 08:36:46;;;;;;;25.27;14.63;;;11.80;99.90;;;;;;4222163;28;20104;-85
2023/05/07 08:38:47;;;;;;;21.95;12.45;;;11.80;99.90;;;;;;4254327;27;20538;-86
2023/05/07 08:40:48;;;;;;;33.00;12.80;;;11.90;99.90;;;;;;4219963;28;20048;-85
2023/05/07 08:42:52;;;;;;;23.17;13.30;;;11.90;99.90;;;;;;4253101;27;20079;-86
2023/05/07 08:44:59;;;;;;;23.45;12.70;;;11.90;99.90;;;;;;4218266;28;20067;-85
2023/05/07 08:47:02;;;;;;;24.88;13.80;;;11.80;99.90;;;;;;4233868;28;20090;-85
2023/05/07 08:49:03;;;;;;;24.77;13.13;;;12.00;99.90;;;;;;4253606;27;20072;-85
2023/05/07 08:51:05;;;;;;;24.67;13.32;;;12.10;99.90;;;;;;4234859;28;20048;-86
2023/05/07 08:53:06;;;;;;;26.83;13.40;;;12.40;99.90;;;;;;4253454;27;20490;-85
2023/05/07 08:55:07;;;;;;;26.60;13.50;;;12.50;99.90;;;;;;4233544;28;20043;-86
2023/05/07 08:57:08;;;;;;;20.50;12.63;;;12.60;99.90;;;;;;4235175;28;20047;-85
2023/05/07 08:59:09;;;;;;;26.13;14.48;;;12.70;99.90;;;;;;4252891;27;20051;-84
2023/05/07 09:01:15;;;;;;;22.42;12.52;;;12.80;99.90;;;;;;4252036;27;20050;-85
2023/05/07 09:03:16;;;;;;;25.73;13.60;;;12.80;99.90;;;;;;4235374;28;20073;-85
2023/05/07 09:05:17;;;;;;;22.88;12.80;;;12.80;99.90;;;;;;4234226;28;20450;-85
2023/05/07 09:07:19;;;;;;;23.58;12.68;;;12.90;99.90;;;;;;4235414;28;20044;-84
2023/05/07 09:09:22;;;;;;;23.63;13.25;;;12.90;99.90;;;;;;4233756;28;20043;-85
2023/05/07 09:11:24;;;;;;;21.98;12.95;;;13.00;99.90;;;;;;4231471;28;20484;-84
2023/05/07 09:13:27;;;;;;;22.83;12.48;;;13.10;99.90;;;;;;4232536;28;20047;-84
2023/05/07 09:15:28;;;;;;;22.80;13.38;;;13.10;99.90;;;;;;4251304;27;20197;-84
2023/05/07 09:17:29;;;;;;;23.70;12.48;;;13.20;99.90;;;;;;4230685;28;20082;-84
2023/05/07 09:19:30;;;;;;;22.45;12.98;;;13.20;99.90;;;;;;4232841;28;20118;-84
2023/05/07 09:21:31;;;;;;;21.60;12.45;;;13.20;99.90;;;;;;4221901;28;20048;-84
2023/05/07 09:23:32;;;;;;;25.05;12.68;;;13.30;99.90;;;;;;4249454;27;20082;-83
2023/05/07 09:25:35;;;;;;;23.85;12.75;;;13.40;99.90;;;;;;4251089;27;20101;-83
2023/05/07 09:27:36;;;;;;;23.63;13.52;;;13.30;99.90;;;;;;4252230;27;20043;-83
2023/05/07 09:29:37;;;;;;;24.02;12.57;;;13.50;99.90;;;;;;4233406;28;20048;-83
2023/05/07 09:31:38;;;;;;;23.48;13.25;;;13.50;99.90;;;;;;4252580;27;20043;-83
2023/05/07 09:33:40;;;;;;;21.95;12.77;;;13.60;99.90;;;;;;4233595;28;20508;-83
2023/05/07 09:35:40;;;;;;;22.02;12.70;;;13.60;99.90;;;;;;4234764;28;20052;-83
2023/05/07 09:37:41;;;;;;;19.33;12.35;;;13.60;99.90;;;;;;4254194;27;20047;-83
2023/05/07 09:39:47;;;;;;;19.90;11.88;;;13.80;99.90;;;;;;4251590;27;20078;-83
2023/05/07 09:41:54;;;;;;;24.23;12.73;;;13.90;99.90;;;;;;4251151;27;20047;-83
2023/05/07 09:43:55;;;;;;;22.52;11.95;;;14.00;99.90;;;;;;4251403;27;20164;-83
2023/05/07 09:45:58;;;;;;;22.50;12.20;;;;;;;;;;4215927;28;20071;-83
2023/05/07 09:48:01;;;;;;;19.95;12.20;;;;;;;;;;4233670;28;20124;-84
2023/05/07 09:50:04;;;;;;;24.13;12.93;;;;;;;;;;4247064;27;20054;-84
2023/05/07 09:52:08;;;;;;;20.45;11.45;;;;;;;;;;4225426;28;20500;-84
2023/05/07 09:54:10;;;;;;;20.65;11.15;;;;;;;;;;4229165;28;20043;-85
2023/05/07 09:56:12;;;;;;;20.40;12.55;;;;;;;;;;4252311;27;20050;-85
2023/05/07 09:58:16;;;;;;;20.42;11.90;;;;;;;;;;4249836;27;20049;-85
2023/05/07 10:00:19;;;;;;;20.75;11.32;;;;;;;;;;4216341;28;20102;-83
2023/05/07 10:02:21;;;;;;;19.23;11.93;;;;;;;;;;4216357;28;20408;-83
2023/05/07 10:04:22;;;;;;;21.13;11.52;;;14.00;99.90;;;;;;4216637;28;20150;-83
2023/05/07 10:06:25;;;;;;;17.55;11.02;;;14.60;99.90;;;;;;4232671;28;20054;-83
2023/05/07 10:08:26;;;;;;;21.15;11.70;;;14.70;99.90;;;;;;4232033;28;20579;-83
2023/05/07 10:10:29;;;;;;;21.65;11.85;;;14.70;99.90;;;;;;4250386;27;20043;-83
2023/05/07 10:12:36;;;;;;;18.83;12.10;;;14.80;99.90;;;;;;4243098;27;20035;-83
2023/05/07 10:14:39;;;;;;;20.27;11.65;;;14.90;99.90;;;;;;4232010;28;20458;-84
2023/05/07 10:16:40;;;;;;;19.98;10.80;;;;;;;;;;4250270;27;20054;-83
2023/05/07 10:18:41;;;;;;;20.85;11.98;;;;;;;;;;4238631;27;20048;-82
2023/05/07 10:20:43;;;;;;;18.60;10.38;;;;;;;;;;4233518;28;20043;-82
2023/05/07 10:22:46;;;;;;;19.75;11.88;;;;;;;;;;4233357;28;20380;-84
2023/05/07 10:24:49;;;;;;;20.25;11.50;;;;;;;;;;4214807;28;20055;-83
2023/05/07 10:26:51;;;;;;;19.50;11.35;;;;;;;;;;4215718;28;20036;-83